Ashland, Oregon
Current Conditions -  °F | °C
As of 6:53 PM on Wednesday 22 Oct 2014 (Local Time) from KMFR Reporting Station
Overcast Overcast  
Wind Chill: 17°   Ceiling: 7500
Heat Index: 17°   Visibility: 10mi
Dew Point: 11°   Wind: 8mph
Humidity: 67%   Direction: 260°W
Pressure: 29.85"   Gusts: NA
Location:  42.2°N, 122.71°W
Report Text: KMFR 230153Z 26007KT 10SM FEW060 BKN075 OVC085 17/11 A2985 RMK AO2 RAE34 SLP105 P0000 T01720111
Loading
Personal Weather Stations






























Interactive Weather Map
Tropical Storm Tracking
New forecast layout! Learn more

10-Day Weather Forecast

Advertisements
Track Severe Weather on mobile